Terminal Aerodrome Forecast
Issued by NWS

Home | Current Version | Previous Version | Text Only | Print | Product List | Glossary On
Versions: 1 2 3 4 5 6 7 8 9 10 11 12 13 14 15 16 17 18 19 20 21 22 23 24 25 26 27 28 29 30 31 32 33 34 35 36 37 38
000
FTUS43 KDTX 311733
TAFYIP
TAF
KYIP 311733Z 3118/0118 22010KT P6SM SCT028
     FM311900 22010KT P6SM BKN045
     FM010000 23005KT P6SM OVC025
     FM010800 VRB03KT 2SM -SN OVC015
     FM011400 03012KT 1SM -SN OVC010=

USA.gov is the U.S. government's official web portal to all federal, state and local government web resources and services.